Time;durP1;ratioP1;P1;durP2;ratioP2;P2;SDS_P1;SDS_P2;PMS_P1;PMS_P2;Temp;Humidity;BMP_temperature;BMP_pressure;BME280_temperature;BME280_humidity;BME280_pressure;Samples;Min_cycle;Max_cycle;Signal;HPM_P1;HPM_P2
2022/05/02 00:02:22;;;;;;;8.48;5.43;;;;;;;;;;5018181;28;20034;-64
2022/05/02 00:04:48;;;;;;;7.82;5.57;;;;;;;;;;5019812;28;20041;-64
2022/05/02 00:07:14;;;;;;;8.68;6.38;;;;;;;;;;5005131;28;20053;-65
2022/05/02 00:09:41;;;;;;;6.50;4.70;;;;;;;;;;5000133;28;20050;-64
2022/05/02 00:12:07;;;;;;;9.73;4.45;;;;;;;;;;5011654;28;20120;-64
2022/05/02 00:14:33;;;;;;;5.05;3.70;;;;;;;;;;5009031;28;20045;-65
2022/05/02 00:16:59;;;;;;;5.00;3.35;;;;;;;;;;5006004;28;20120;-65
2022/05/02 00:19:25;;;;;;;4.97;3.20;;;;;;;;;;5015983;28;20081;-64
2022/05/02 00:21:51;;;;;;;5.28;3.80;;;;;;;;;;5001990;28;20049;-64
2022/05/02 00:24:17;;;;;;;5.60;3.90;;;;;;;;;;5017891;28;20046;-65
2022/05/02 00:26:44;;;;;;;8.30;5.53;;;;;;;;;;5014719;28;20152;-65
2022/05/02 00:29:10;;;;;;;6.72;4.05;;;;;;;;;;5005232;28;20045;-64
2022/05/02 00:31:36;;;;;;;4.80;3.03;;;;;;;;;;5016658;28;20053;-65
2022/05/02 00:34:02;;;;;;;4.95;3.13;;;;;;;;;;4996396;28;20105;-64
2022/05/02 00:36:28;;;;;;;5.32;3.35;;;;;;;;;;5001536;28;20037;-65
2022/05/02 00:38:55;;;;;;;4.10;2.55;;;;;;;;;;5014886;28;20088;-65
2022/05/02 00:41:22;;;;;;;3.08;1.70;;;;;;;;;;5004035;28;20077;-65
2022/05/02 00:43:48;;;;;;;3.20;1.70;;;;;;;;;;5008587;28;20041;-64
2022/05/02 00:46:21;;;;;;;2.80;1.50;;;;;;;;;;5017530;28;20034;-64
2022/05/02 00:48:47;;;;;;;2.60;1.20;;;;;;;;;;5010648;28;20100;-65
2022/05/02 00:51:15;;;;;;;2.78;1.50;;;;;;;;;;5009744;28;20044;-64
2022/05/02 00:53:42;;;;;;;1.42;0.80;;;;;;;;;;5002211;28;20103;-64
2022/05/02 00:56:08;;;;;;;1.33;0.73;;;;;;;;;;5002190;28;20037;-64
2022/05/02 00:58:36;;;;;;;1.48;0.70;;;;;;;;;;5010655;28;20103;-65
2022/05/02 01:01:03;;;;;;;3.28;0.80;;;;;;;;;;5016136;28;20045;-64
2022/05/02 01:03:29;;;;;;;2.13;1.20;;;;;;;;;;5013896;28;20049;-64
2022/05/02 01:08:41;;;;;;;2.90;1.23;;;;;;;;;;5009173;28;20485;-65
2022/05/02 01:11:08;;;;;;;2.88;1.33;;;;;;;;;;4996073;28;21229;-64
2022/05/02 01:13:38;;;;;;;2.72;1.48;;;;;;;;;;5014513;28;20053;-65
2022/05/02 01:16:09;;;;;;;2.75;1.30;;;;;;;;;;5017197;28;20382;-65
2022/05/02 01:18:36;;;;;;;2.53;1.33;;;;;;;;;;5014411;28;20044;-65
2022/05/02 01:21:07;;;;;;;2.92;1.45;;;;;;;;;;5007196;28;20033;-65
2022/05/02 01:23:33;;;;;;;3.47;1.60;;;;;;;;;;5013031;28;20454;-65
2022/05/02 01:25:59;;;;;;;2.45;1.23;;;;;;;;;;5014312;28;20571;-65
2022/05/02 01:28:25;;;;;;;2.03;1.05;;;;;;;;;;5022824;28;20481;-64
2022/05/02 01:30:52;;;;;;;2.42;1.40;;;;;;;;;;5014552;28;20046;-65
2022/05/02 01:33:18;;;;;;;3.00;1.73;;;;;;;;;;5011919;28;20088;-64
2022/05/02 01:35:44;;;;;;;5.78;2.78;;;;;;;;;;4996290;28;20096;-64
2022/05/02 01:38:12;;;;;;;4.32;2.80;;;;;;;;;;5018182;28;20080;-65
2022/05/02 01:40:39;;;;;;;3.70;2.33;;;;;;;;;;5015657;28;20073;-64
2022/05/02 01:43:05;;;;;;;3.55;1.90;;;;;;;;;;5014764;28;20188;-65
2022/05/02 01:45:31;;;;;;;1.88;1.02;;;;;;;;;;5003793;28;20503;-64
2022/05/02 01:47:57;;;;;;;2.90;1.42;;;;;;;;;;5004819;28;20060;-64
2022/05/02 01:50:23;;;;;;;3.80;2.20;;;;;;;;;;5016691;28;20129;-65
2022/05/02 01:52:49;;;;;;;4.20;2.53;;;;;;;;;;5018743;28;20061;-65
2022/05/02 01:55:15;;;;;;;6.53;4.03;;;;;;;;;;5019324;28;20042;-65
2022/05/02 01:57:42;;;;;;;4.55;2.88;;;;;;;;;;5012698;28;20104;-65
2022/05/02 02:00:08;;;;;;;6.15;2.50;;;;;;;;;;5014205;28;20030;-65
2022/05/02 02:02:34;;;;;;;3.88;2.45;;;;;;;;;;5009745;28;20050;-65
2022/05/02 02:07:45;;;;;;;3.33;1.92;;;;;;;;;;5005970;28;20171;-65
2022/05/02 02:10:11;;;;;;;2.90;1.73;;;;;;;;;;5011743;28;20480;-64
2022/05/02 02:12:37;;;;;;;1.98;1.17;;;;;;;;;;5010451;28;20045;-64
2022/05/02 02:15:03;;;;;;;2.72;1.60;;;;;;;;;;5015427;28;20168;-64
2022/05/02 02:17:29;;;;;;;2.10;1.30;;;;;;;;;;5009639;28;20049;-65
2022/05/02 02:19:56;;;;;;;2.60;1.30;;;;;;;;;;5015333;28;20152;-65
2022/05/02 02:22:22;;;;;;;1.83;1.13;;;;;;;;;;5000489;28;20056;-65
2022/05/02 02:24:48;;;;;;;2.40;1.48;;;;;;;;;;5016611;28;20046;-64
2022/05/02 02:27:15;;;;;;;2.78;1.33;;;;;;;;;;5003202;28;20395;-65
2022/05/02 02:29:41;;;;;;;2.22;1.20;;;;;;;;;;5005988;28;20033;-65
2022/05/02 02:32:07;;;;;;;2.13;1.20;;;;;;;;;;5015346;28;20184;-65
2022/05/02 02:34:33;;;;;;;1.52;1.08;;;;;;;;;;5012807;28;20890;-65
2022/05/02 02:37:00;;;;;;;3.13;0.88;;;;;;;;;;5015458;28;20045;-65
2022/05/02 02:39:26;;;;;;;6.25;1.27;;;;;;;;;;5014379;28;20053;-65
2022/05/02 02:41:53;;;;;;;2.00;1.30;;;;;;;;;;5005837;28;20079;-65
2022/05/02 02:44:19;;;;;;;3.92;1.60;;;;;;;;;;5000065;28;20172;-65
2022/05/02 02:46:45;;;;;;;2.65;1.55;;;;;;;;;;4999149;28;20096;-64
2022/05/02 02:49:11;;;;;;;3.45;2.08;;;;;;;;;;5013807;28;20417;-64
2022/05/02 02:51:37;;;;;;;3.70;1.83;;;;;;;;;;5012396;28;20053;-65
2022/05/02 02:54:03;;;;;;;2.65;1.63;;;;;;;;;;5016042;28;20042;-65
2022/05/02 02:56:29;;;;;;;2.72;1.60;;;;;;;;;;5004915;28;20120;-65
2022/05/02 02:58:55;;;;;;;2.33;1.35;;;;;;;;;;5013134;28;20127;-64
2022/05/02 03:01:22;;;;;;;1.75;1.05;;;;;;;;;;5013707;28;20355;-64
2022/05/02 03:03:48;;;;;;;4.00;1.25;;;;;;;;;;5012518;28;20562;-65
2022/05/02 03:06:14;;;;;;;1.92;1.10;;;;;;;;;;4996834;28;20046;-65
2022/05/02 03:08:41;;;;;;;1.63;1.10;;;;;;;;;;5016789;28;20037;-65
2022/05/02 03:11:08;;;;;;;2.45;1.45;;;;;;;;;;5015398;28;21026;-65
2022/05/02 03:13:35;;;;;;;2.20;1.30;;;;;;;;;;5015146;28;20045;-65
2022/05/02 03:16:01;;;;;;;3.30;1.40;;;;;;;;;;4996178;28;20049;-65
2022/05/02 03:18:27;;;;;;;2.35;1.25;;;;;;;;;;5013664;28;20133;-64
2022/05/02 03:20:53;;;;;;;2.53;1.48;;;;;;;;;;5004363;28;20049;-64
2022/05/02 03:23:20;;;;;;;2.90;1.60;;;;;;;;;;5016595;28;20088;-65
2022/05/02 03:25:46;;;;;;;4.20;2.15;;;;;;;;;;5011665;28;20137;-65
2022/05/02 03:28:13;;;;;;;4.20;2.42;;;;;;;;;;5013660;28;20046;-64
2022/05/02 03:30:39;;;;;;;3.45;2.10;;;;;;;;;;5017996;28;20180;-64
2022/05/02 03:33:05;;;;;;;11.85;2.55;;;;;;;;;;5015127;28;20149;-64
2022/05/02 03:35:31;;;;;;;11.38;3.35;;;;;;;;;;5014316;28;20045;-64
2022/05/02 03:37:57;;;;;;;10.45;3.80;;;;;;;;;;5019920;28;20041;-65
2022/05/02 03:40:24;;;;;;;9.43;4.50;;;;;;;;;;5002363;28;20504;-65
2022/05/02 03:42:50;;;;;;;10.20;4.07;;;;;;;;;;5012081;28;20575;-65
2022/05/02 03:45:16;;;;;;;39.83;4.82;;;;;;;;;;5012866;28;20078;-65
2022/05/02 03:47:42;;;;;;;37.47;4.28;;;;;;;;;;5015427;28;20052;-64
2022/05/02 03:50:09;;;;;;;37.33;4.70;;;;;;;;;;5011529;28;20359;-65
2022/05/02 03:52:35;;;;;;;22.58;3.85;;;;;;;;;;5009037;28;20068;-65
2022/05/02 03:55:01;;;;;;;8.27;3.22;;;;;;;;;;5007366;28;20392;-65
2022/05/02 03:57:28;;;;;;;4.50;2.80;;;;;;;;;;5012895;28;21749;-65
2022/05/02 03:59:54;;;;;;;9.98;2.80;;;;;;;;;;5014211;28;20048;-64
2022/05/02 04:02:20;;;;;;;5.05;2.55;;;;;;;;;;5010673;28;20041;-64
2022/05/02 04:04:46;;;;;;;10.30;2.50;;;;;;;;;;5015140;28;20200;-64
2022/05/02 04:07:12;;;;;;;10.75;2.53;;;;;;;;;;5003054;28;20500;-65
2022/05/02 04:09:38;;;;;;;5.43;2.75;;;;;;;;;;5000216;28;20188;-65
2022/05/02 04:12:05;;;;;;;3.90;2.33;;;;;;;;;;5001359;28;20222;-65
2022/05/02 04:14:31;;;;;;;3.42;1.92;;;;;;;;;;5000587;28;20049;-65
2022/05/02 04:16:57;;;;;;;4.38;2.13;;;;;;;;;;5000786;28;20450;-64
2022/05/02 04:19:23;;;;;;;6.47;3.00;;;;;;;;;;5010235;28;20038;-65
2022/05/02 04:21:49;;;;;;;5.10;2.85;;;;;;;;;;5012498;28;20131;-65
2022/05/02 04:24:15;;;;;;;15.05;3.97;;;;;;;;;;5016118;28;20049;-65
2022/05/02 04:26:42;;;;;;;6.30;2.95;;;;;;;;;;4991065;28;20053;-65
2022/05/02 04:29:08;;;;;;;7.03;3.33;;;;;;;;;;4994748;28;20045;-65
2022/05/02 04:31:34;;;;;;;7.68;2.45;;;;;;;;;;5000321;28;20079;-64
2022/05/02 04:34:00;;;;;;;3.80;2.55;;;;;;;;;;5014419;28;20183;-65
2022/05/02 04:36:26;;;;;;;5.05;2.85;;;;;;;;;;5005012;28;20066;-64
2022/05/02 04:38:52;;;;;;;6.20;2.97;;;;;;;;;;5007298;28;20052;-65
2022/05/02 04:41:19;;;;;;;4.90;3.20;;;;;;;;;;5010370;28;20175;-65
2022/05/02 04:43:51;;;;;;;5.32;3.40;;;;;;;;;;5005380;28;20100;-64
2022/05/02 04:46:17;;;;;;;6.72;3.53;;;;;;;;;;5000509;28;20397;-65
2022/05/02 04:48:43;;;;;;;5.53;3.55;;;;;;;;;;5017205;28;20042;-65
2022/05/02 04:51:09;;;;;;;5.57;3.78;;;;;;;;;;5008644;28;20140;-65
2022/05/02 04:53:35;;;;;;;5.10;3.65;;;;;;;;;;5011991;28;20073;-65
2022/05/02 04:56:01;;;;;;;4.68;3.00;;;;;;;;;;5010663;28;20042;-63
2022/05/02 04:58:27;;;;;;;4.57;3.13;;;;;;;;;;5010441;28;20053;-66
2022/05/02 05:00:54;;;;;;;4.93;3.53;;;;;;;;;;5001024;28;20124;-65
2022/05/02 05:03:21;;;;;;;4.30;3.00;;;;;;;;;;5002518;28;20046;-65
2022/05/02 05:05:47;;;;;;;4.68;3.35;;;;;;;;;;5001194;28;20177;-65
2022/05/02 05:08:14;;;;;;;4.70;3.03;;;;;;;;;;5013201;28;20378;-64
2022/05/02 05:10:47;;;;;;;6.18;3.10;;;;;;;;;;5008591;28;20048;-64
2022/05/02 05:13:16;;;;;;;4.20;2.92;;;;;;;;;;5002209;28;20049;-65
2022/05/02 05:18:46;;;;;;;5.20;3.85;;;;;;;;;;5009126;28;20064;-65
2022/05/02 05:21:19;;;;;;;6.38;4.65;;;;;;;;;;5012693;28;20914;-65
2022/05/02 05:24:00;;;;;;;6.32;4.18;;;;;;;;;;5010772;28;20571;-64
2022/05/02 05:26:36;;;;;;;5.75;4.57;;;;;;;;;;5015444;28;20053;-65
2022/05/02 05:29:24;;;;;;;6.10;4.60;;;;;;;;;;5016270;28;20076;-64
2022/05/02 05:31:56;;;;;;;5.75;4.13;;;;;;;;;;5014504;28;20168;-65
2022/05/02 05:34:45;;;;;;;5.93;4.28;;;;;;;;;;5018182;28;20058;-65
2022/05/02 05:37:29;;;;;;;6.30;4.90;;;;;;;;;;5008402;28;20121;-65
2022/05/02 05:39:59;;;;;;;7.85;5.78;;;;;;;;;;5006642;28;20191;-65
2022/05/02 05:42:34;;;;;;;9.00;6.47;;;;;;;;;;5010648;28;20046;-65
2022/05/02 05:45:11;;;;;;;22.33;13.48;;;;;;;;;;4997484;28;20990;-64
2022/05/02 05:47:56;;;;;;;24.15;16.58;;;;;;;;;;5014252;28;20601;-63
2022/05/02 05:50:26;;;;;;;24.77;17.60;;;;;;;;;;5012210;28;20041;-65
2022/05/02 05:53:04;;;;;;;23.40;18.23;;;;;;;;;;5009319;28;20038;-63
2022/05/02 05:55:37;;;;;;;26.58;18.98;;;;;;;;;;5014837;28;20042;-65
2022/05/02 05:58:21;;;;;;;27.52;19.33;;;;;;;;;;5009479;28;20042;-65
2022/05/02 06:00:52;;;;;;;31.57;18.93;;;;;;;;;;5021555;28;20087;-64
2022/05/02 06:03:25;;;;;;;29.88;18.50;;;;;;;;;;5001012;28;20088;-65
2022/05/02 06:05:52;;;;;;;26.10;19.65;;;;;;;;;;5004016;28;20081;-64
2022/05/02 06:08:20;;;;;;;25.85;19.50;;;;;;;;;;5022109;28;20535;-65
2022/05/02 06:10:46;;;;;;;28.30;18.73;;;;;;;;;;5020371;28;20037;-65
2022/05/02 06:13:15;;;;;;;27.25;18.88;;;;;;;;;;5003852;28;20408;-64
2022/05/02 06:18:30;;;;;;;27.50;16.92;;;;;;;;;;5021387;28;20065;-65
2022/05/02 06:20:59;;;;;;;24.98;17.27;;;;;;;;;;5022779;28;20073;-65
2022/05/02 06:23:26;;;;;;;22.63;17.02;;;;;;;;;;5021637;28;20052;-65
2022/05/02 06:25:55;;;;;;;26.63;18.27;;;;;;;;;;5019074;28;20045;-65
2022/05/02 06:28:24;;;;;;;23.55;16.42;;;;;;;;;;5021977;28;20410;-65
2022/05/02 06:30:52;;;;;;;23.17;14.95;;;;;;;;;;5020272;28;20519;-65
2022/05/02 06:33:21;;;;;;;21.50;16.10;;;;;;;;;;5019339;28;20591;-71
2022/05/02 06:35:54;;;;;;;22.13;14.63;;;;;;;;;;5008212;28;20064;-80
2022/05/02 06:38:20;;;;;;;25.90;14.03;;;;;;;;;;4984659;28;20042;-65
2022/05/02 06:40:52;;;;;;;21.10;13.52;;;;;;;;;;5015461;28;20656;-65
2022/05/02 06:43:33;;;;;;;20.33;13.18;;;;;;;;;;5019564;28;20034;-76
2022/05/02 06:46:05;;;;;;;18.73;12.57;;;;;;;;;;5019972;28;20497;-66
2022/05/02 06:48:35;;;;;;;23.42;13.35;;;;;;;;;;5019757;28;20045;-65
2022/05/02 06:51:06;;;;;;;18.85;13.30;;;;;;;;;;5019282;28;20136;-65
2022/05/02 06:53:38;;;;;;;20.15;14.27;;;;;;;;;;5017798;28;20046;-65
2022/05/02 06:56:10;;;;;;;18.52;13.32;;;;;;;;;;5001589;28;20049;-65
2022/05/02 06:58:51;;;;;;;19.20;13.43;;;;;;;;;;5019625;28;20030;-65
2022/05/02 07:01:18;;;;;;;18.08;12.65;;;;;;;;;;5005003;28;20094;-65
2022/05/02 07:04:03;;;;;;;19.05;12.43;;;;;;;;;;5005494;28;20041;-65
2022/05/02 07:06:42;;;;;;;17.13;11.85;;;;;;;;;;5019599;28;20434;-65
2022/05/02 07:09:10;;;;;;;17.60;11.80;;;;;;;;;;5002540;28;20045;-65
2022/05/02 07:11:54;;;;;;;17.65;11.18;;;;;;;;;;4994077;28;20046;-65
2022/05/02 07:14:26;;;;;;;15.48;10.85;;;;;;;;;;5021499;28;20085;-64
2022/05/02 07:16:54;;;;;;;14.10;9.30;;;;;;;;;;5023580;28;20493;-69
2022/05/02 07:19:35;;;;;;;16.83;7.68;;;;;;;;;;4985854;28;20462;-65
2022/05/02 07:22:03;;;;;;;12.85;7.25;;;;;;;;;;4998313;28;20073;-65
2022/05/02 07:24:42;;;;;;;12.05;8.15;;;;;;;;;;5017913;28;20139;-65
2022/05/02 07:27:10;;;;;;;10.15;6.68;;;;;;;;;;5014777;28;20080;-65
2022/05/02 07:29:37;;;;;;;9.90;6.90;;;;;;;;;;5004992;28;20137;-65
2022/05/02 07:32:04;;;;;;;11.48;6.80;;;;;;;;;;5006484;28;20114;-65
2022/05/02 07:34:30;;;;;;;9.18;6.65;;;;;;;;;;5018036;28;20097;-65
2022/05/02 07:36:56;;;;;;;14.07;7.57;;;;;;;;;;5020546;28;20038;-65
2022/05/02 07:39:24;;;;;;;11.38;6.70;;;;;;;;;;5006154;28;20119;-65
2022/05/02 07:41:50;;;;;;;11.25;7.32;;;;;;;;;;5019026;28;20077;-65
2022/05/02 07:44:18;;;;;;;12.23;6.25;;;;;;;;;;5007008;28;20137;-65
2022/05/02 07:46:46;;;;;;;8.82;5.25;;;;;;;;;;5000229;28;20488;-65
2022/05/02 07:49:15;;;;;;;10.52;5.60;;;;;;;;;;5005110;28;20084;-64
2022/05/02 07:51:46;;;;;;;11.05;5.90;;;;;;;;;;5017703;28;20116;-64
2022/05/02 07:54:19;;;;;;;19.38;8.23;;;;;;;;;;5007432;28;20569;-64
2022/05/02 07:56:47;;;;;;;13.63;6.97;;;;;;;;;;4993099;28;20045;-65
2022/05/02 07:59:15;;;;;;;10.70;6.22;;;;;;;;;;5004761;28;20081;-64
2022/05/02 08:01:41;;;;;;;13.70;6.82;;;;;;;;;;5003842;28;20119;-64
2022/05/02 08:04:07;;;;;;;9.70;6.43;;;;;;;;;;5017122;28;20115;-65
2022/05/02 08:06:36;;;;;;;11.10;6.95;;;;;;;;;;5017973;28;20128;-64
2022/05/02 08:09:10;;;;;;;13.77;7.22;;;;;;;;;;5020221;28;20057;-64
2022/05/02 08:11:37;;;;;;;9.85;6.75;;;;;;;;;;5013080;28;20049;-64
2022/05/02 08:14:08;;;;;;;11.77;7.07;;;;;;;;;;4979044;28;20125;-64
2022/05/02 08:16:39;;;;;;;11.65;6.25;;;;;;;;;;5015090;28;20548;-64
2022/05/02 08:19:10;;;;;;;11.10;6.75;;;;;;;;;;5008933;28;20037;-64
2022/05/02 08:21:45;;;;;;;10.02;6.85;;;;;;;;;;5021351;28;20037;-64
2022/05/02 08:27:25;;;;;;;11.55;7.22;;;;;;;;;;5019736;28;20046;-63
2022/05/02 08:29:57;;;;;;;12.00;6.82;;;;;;;;;;5017945;28;20046;-64
2022/05/02 08:32:34;;;;;;;28.02;7.72;;;;;;;;;;5002299;28;20050;-64
2022/05/02 08:35:07;;;;;;;13.98;7.00;;;;;;;;;;4997822;28;20107;-64
2022/05/02 08:37:34;;;;;;;9.97;6.83;;;;;;;;;;5025672;28;20048;-64
2022/05/02 08:40:06;;;;;;;12.05;7.78;;;;;;;;;;5020391;28;20319;-64
2022/05/02 08:42:50;;;;;;;11.82;7.28;;;;;;;;;;5018114;28;20546;-65
2022/05/02 08:45:29;;;;;;;13.00;7.22;;;;;;;;;;5028437;28;20060;-64
2022/05/02 08:48:11;;;;;;;11.88;6.88;;;;;;;;;;5023408;28;20041;-64
2022/05/02 08:50:50;;;;;;;10.95;7.18;;;;;;;;;;5026323;28;20037;-64
2022/05/02 08:53:34;;;;;;;11.38;6.05;;;;;;;;;;5002715;28;20041;-64
2022/05/02 08:56:00;;;;;;;;;;;;;;;;;;5000356;28;20154;-64
2022/05/02 08:58:54;;;;;;;16.95;6.22;;;;;;;;;;5001388;28;19921;-64
2022/05/02 09:01:20;;;;;;;;;;;;;;;;;;5006003;28;20041;-65
2022/05/02 09:04:10;;;;;;;12.48;7.00;;;;;;;;;;5002321;28;19928;-64
2022/05/02 09:06:55;;;;;;;9.05;6.15;;;;;;;;;;5016471;28;20125;-64
2022/05/02 09:09:32;;;;;;;10.10;6.75;;;;;;;;;;5017299;28;20096;-64
2022/05/02 09:12:06;;;;;;;11.52;7.03;;;;;;;;;;5016261;28;20084;-65
2022/05/02 09:14:37;;;;;;;10.55;6.40;;;;;;;;;;5005501;28;20037;-64
2022/05/02 09:17:22;;;;;;;10.30;6.65;;;;;;;;;;5009388;28;20046;-64
2022/05/02 09:19:59;;;;;;;11.13;7.05;;;;;;;;;;5018752;28;20056;-64
2022/05/02 09:22:25;;;;;;;12.20;6.50;;;;;;;;;;5017520;28;20045;-65
2022/05/02 09:25:03;;;;;;;12.43;7.07;;;;;;;;;;4999626;28;20053;-64
2022/05/02 09:27:37;;;;;;;11.48;7.20;;;;;;;;;;5002828;28;20049;-64
2022/05/02 09:30:18;;;;;;;10.98;6.80;;;;;;;;;;5020106;28;20052;-64
2022/05/02 09:32:45;;;;;;;10.52;6.68;;;;;;;;;;5017608;28;20151;-65
2022/05/02 09:35:18;;;;;;;8.00;6.47;;;;;;;;;;5022581;28;20046;-65
2022/05/02 09:37:55;;;;;;;10.98;6.68;;;;;;;;;;5009178;28;20081;-65
2022/05/02 09:40:24;;;;;;;10.55;6.82;;;;;;;;;;5018397;28;20370;-65
2022/05/02 09:42:51;;;;;;;21.58;7.00;;;;;;;;;;5004957;28;20477;-65
2022/05/02 09:51:21;;;;;;;11.20;6.30;;;;;;;;;;5020386;28;20049;-65
2022/05/02 09:53:54;;;;;;;12.77;6.30;;;;;;;;;;5015288;28;20068;-65
2022/05/02 09:59:07;;;;;;;10.63;5.75;;;;;;;;;;5010700;28;20045;-65
2022/05/02 10:01:34;;;;;;;8.70;5.03;;;;;;;;;;5018579;28;20411;-66
2022/05/02 10:04:01;;;;;;;7.80;5.07;;;;;;;;;;5018921;28;20065;-65
2022/05/02 10:06:32;;;;;;;9.82;5.60;;;;;;;;;;5003314;28;20050;-64
2022/05/02 10:09:03;;;;;;;8.52;4.82;;;;;;;;;;4998191;28;20383;-65
2022/05/02 10:11:41;;;;;;;8.43;5.10;;;;;;;;;;5019657;28;20085;-65
2022/05/02 10:14:22;;;;;;;7.70;4.57;;;;;;;;;;5017836;28;20041;-65
2022/05/02 10:16:57;;;;;;;9.23;4.55;;;;;;;;;;5020495;28;20093;-65
2022/05/02 10:19:36;;;;;;;10.20;4.60;;;;;;;;;;5021094;28;20086;-65
2022/05/02 10:22:16;;;;;;;6.72;3.67;;;;;;;;;;5007087;28;20110;-65
2022/05/02 10:24:48;;;;;;;6.30;4.30;;;;;;;;;;5022816;28;20037;-65
2022/05/02 10:27:34;;;;;;;6.03;4.13;;;;;;;;;;5006025;28;20124;-65
2022/05/02 10:30:08;;;;;;;9.57;4.20;;;;;;;;;;5018385;28;20041;-65
2022/05/02 10:32:35;;;;;;;6.43;4.10;;;;;;;;;;5003153;28;20049;-65
2022/05/02 10:35:02;;;;;;;5.22;3.72;;;;;;;;;;5017869;28;20129;-65
2022/05/02 10:37:31;;;;;;;5.90;3.95;;;;;;;;;;5003165;28;20049;-65
2022/05/02 10:40:04;;;;;;;6.18;4.05;;;;;;;;;;5005970;28;20106;-65
2022/05/02 10:42:32;;;;;;;5.93;3.50;;;;;;;;;;5021129;28;20350;-65
2022/05/02 10:45:05;;;;;;;7.22;3.53;;;;;;;;;;5019389;28;20393;-65
2022/05/02 10:47:40;;;;;;;5.38;3.40;;;;;;;;;;5017613;28;20373;-65
2022/05/02 10:50:16;;;;;;;5.60;3.80;;;;;;;;;;5023639;28;20531;-65
2022/05/02 10:52:46;;;;;;;6.15;3.60;;;;;;;;;;5007134;28;20504;-65
2022/05/02 10:55:19;;;;;;;6.43;3.78;;;;;;;;;;5007923;28;20037;-65
2022/05/02 10:57:53;;;;;;;7.00;4.32;;;;;;;;;;5012528;28;20132;-65
2022/05/02 11:00:19;;;;;;;7.40;4.82;;;;;;;;;;5008929;28;20057;-65
2022/05/02 11:02:54;;;;;;;7.10;3.95;;;;;;;;;;5016968;28;20045;-65
2022/05/02 11:05:27;;;;;;;6.32;4.45;;;;;;;;;;5015297;28;20552;-65
2022/05/02 11:07:55;;;;;;;6.47;3.72;;;;;;;;;;5024558;28;20112;-65
2022/05/02 11:10:22;;;;;;;7.75;3.90;;;;;;;;;;5019183;28;20148;-65
2022/05/02 11:13:08;;;;;;;9.23;4.22;;;;;;;;;;5013144;28;20099;-65
2022/05/02 11:15:44;;;;;;;6.05;3.75;;;;;;;;;;5021253;28;20045;-65
2022/05/02 11:20:41;;;;;;;6.13;3.97;;;;;;;;;;5007387;28;20060;-65
2022/05/02 11:21:13;;;;;;;4.03;2.70;;;;;;;;;;5020175;28;20491;-65
2022/05/02 11:23:45;;;;;;;6.40;4.10;;;;;;;;;;5010297;28;20378;-65
2022/05/02 11:26:27;;;;;;;5.50;3.38;;;;;;;;;;5019442;28;20497;-65
2022/05/02 11:29:05;;;;;;;5.25;3.47;;;;;;;;;;5022829;28;20038;-65
2022/05/02 11:31:37;;;;;;;5.90;3.30;;;;;;;;;;5019476;28;20045;-65
2022/05/02 11:34:07;;;;;;;6.13;3.95;;;;;;;;;;5011309;28;20045;-65
2022/05/02 11:36:38;;;;;;;6.85;4.50;;;;;;;;;;5005040;28;20034;-65
2022/05/02 11:39:06;;;;;;;10.00;5.07;;;;;;;;;;5020078;28;20052;-65
2022/05/02 11:41:33;;;;;;;5.88;4.60;;;;;;;;;;5001613;28;20045;-65
2022/05/02 11:44:11;;;;;;;6.10;4.43;;;;;;;;;;5025772;28;20045;-65
2022/05/02 11:46:52;;;;;;;8.98;5.10;;;;;;;;;;5023931;28;20128;-65
2022/05/02 11:49:26;;;;;;;7.55;4.57;;;;;;;;;;5004645;28;20057;-69
2022/05/02 11:51:53;;;;;;;7.47;4.97;;;;;;;;;;5018178;28;20049;-66
2022/05/02 11:54:28;;;;;;;9.00;5.22;;;;;;;;;;5017419;28;20049;-65
2022/05/02 11:56:55;;;;;;;8.77;5.07;;;;;;;;;;5011109;28;20053;-65
2022/05/02 11:59:23;;;;;;;11.68;5.03;;;;;;;;;;5019843;28;20038;-65
2022/05/02 12:01:53;;;;;;;6.65;4.68;;;;;;;;;;5017675;28;20045;-65
2022/05/02 12:04:20;;;;;;;9.73;4.70;;;;;;;;;;5020984;28;20046;-66
2022/05/02 12:07:01;;;;;;;10.13;4.75;;;;;;;;;;5020196;28;20437;-65
2022/05/02 12:09:32;;;;;;;6.65;4.80;;;;;;;;;;5019243;28;20505;-65
2022/05/02 12:11:59;;;;;;;10.25;4.70;;;;;;;;;;5018424;28;20046;-66
2022/05/02 12:14:25;;;;;;;6.53;4.35;;;;;;;;;;5025333;28;20498;-65
2022/05/02 12:17:03;;;;;;;10.30;4.65;;;;;;;;;;5025344;28;20828;-65
2022/05/02 12:19:30;;;;;;;6.93;4.78;;;;;;;;;;5023429;28;20061;-65
2022/05/02 12:21:57;;;;;;;6.60;4.32;;;;;;;;;;5017131;28;20045;-66
2022/05/02 12:24:38;;;;;;;9.20;5.05;;;;;;;;;;5022420;28;20463;-65
2022/05/02 12:27:08;;;;;;;6.85;4.10;;;;;;;;;;5002216;28;20512;-65
2022/05/02 12:29:35;;;;;;;8.02;4.95;;;;;;;;;;5020834;28;20037;-65
2022/05/02 12:32:04;;;;;;;9.20;4.70;;;;;;;;;;5000059;28;20068;-66
2022/05/02 12:34:39;;;;;;;7.13;4.63;;;;;;;;;;5018217;28;20056;-65
2022/05/02 12:37:09;;;;;;;6.50;4.50;;;;;;;;;;5019047;28;20128;-65
2022/05/02 12:39:36;;;;;;;8.02;3.85;;;;;;;;;;5007510;28;20147;-65
2022/05/02 12:42:07;;;;;;;7.25;4.68;;;;;;;;;;5004478;28;20082;-65
2022/05/02 12:44:43;;;;;;;9.20;4.10;;;;;;;;;;5003146;28;20125;-65
2022/05/02 12:47:13;;;;;;;6.82;4.03;;;;;;;;;;5017323;28;20582;-65
2022/05/02 12:49:42;;;;;;;7.53;4.07;;;;;;;;;;5019938;28;20045;-65
2022/05/02 12:52:08;;;;;;;8.43;4.50;;;;;;;;;;5020818;28;20474;-65
2022/05/02 12:54:35;;;;;;;6.80;4.15;;;;;;;;;;5017835;28;20485;-65
2022/05/02 13:02:42;;;;;;;6.50;4.18;;;;;;;;;;5021636;28;20038;-65
2022/05/02 13:05:09;;;;;;;7.95;4.25;;;;;;;;;;5024343;28;20091;-65
2022/05/02 13:07:45;;;;;;;6.13;3.53;;;;;;;;;;5001891;28;20053;-65
2022/05/02 13:10:17;;;;;;;7.32;3.90;;;;;;;;;;5016771;28;20061;-65
2022/05/02 13:12:57;;;;;;;5.10;3.95;;;;;;;;;;5006250;28;21706;-65
2022/05/02 13:15:25;;;;;;;6.03;4.00;;;;;;;;;;5003745;28;20050;-65
2022/05/02 13:17:56;;;;;;;4.97;3.58;;;;;;;;;;5015435;28;20045;-65
2022/05/02 13:20:23;;;;;;;6.82;4.05;;;;;;;;;;5004643;28;20046;-65
2022/05/02 13:23:00;;;;;;;5.82;4.00;;;;;;;;;;5005894;28;20056;-65
2022/05/02 13:25:45;;;;;;;7.40;3.92;;;;;;;;;;5014044;28;20129;-65
2022/05/02 13:28:16;;;;;;;6.60;3.58;;;;;;;;;;5012394;28;20136;-65
2022/05/02 13:30:45;;;;;;;5.93;3.50;;;;;;;;;;5017517;28;20061;-65
2022/05/02 13:33:13;;;;;;;7.72;3.40;;;;;;;;;;5013405;28;20125;-65
2022/05/02 13:35:41;;;;;;;5.50;3.25;;;;;;;;;;5007184;28;20076;-64
2022/05/02 13:38:19;;;;;;;6.10;3.63;;;;;;;;;;5014076;28;20038;-65
2022/05/02 13:41:03;;;;;;;5.93;3.40;;;;;;;;;;5003701;28;20493;-65
2022/05/02 13:43:29;;;;;;;7.55;3.13;;;;;;;;;;5013546;28;20054;-65
2022/05/02 13:45:59;;;;;;;7.68;3.20;;;;;;;;;;5004871;28;20037;-65
2022/05/02 13:48:31;;;;;;;6.10;3.05;;;;;;;;;;5000150;28;20214;-65
2022/05/02 13:51:04;;;;;;;4.47;2.87;;;;;;;;;;5019765;28;20080;-66
2022/05/02 13:53:33;;;;;;;4.07;2.90;;;;;;;;;;4999956;28;20406;-65
2022/05/02 13:56:07;;;;;;;6.72;3.22;;;;;;;;;;5017560;28;20041;-65
2022/05/02 13:58:44;;;;;;;4.65;3.20;;;;;;;;;;5017365;28;20184;-65
2022/05/02 14:01:34;;;;;;;8.07;3.90;;;;;;;;;;5014799;28;20426;-65
2022/05/02 14:04:12;;;;;;;7.38;3.67;;;;;;;;;;5014595;28;20041;-65
2022/05/02 14:06:52;;;;;;;5.95;2.80;;;;;;;;;;5017186;28;20434;-65
2022/05/02 14:09:39;;;;;;;6.88;3.05;;;;;;;;;;5018810;28;20045;-65
2022/05/02 14:12:06;;;;;;;6.80;2.75;;;;;;;;;;5013062;28;20129;-65
2022/05/02 14:14:32;;;;;;;6.00;2.78;;;;;;;;;;5015481;28;20123;-65
2022/05/02 14:16:58;;;;;;;4.88;2.25;;;;;;;;;;5015910;28;20077;-65
2022/05/02 14:19:25;;;;;;;5.40;2.47;;;;;;;;;;5004025;28;20389;-65
2022/05/02 14:21:52;;;;;;;6.85;2.55;;;;;;;;;;5022520;28;20072;-65
2022/05/02 14:24:21;;;;;;;5.90;1.90;;;;;;;;;;5020191;28;20049;-65
2022/05/02 14:27:03;;;;;;;5.05;2.15;;;;;;;;;;5004076;28;20045;-65
2022/05/02 14:29:31;;;;;;;8.20;2.50;;;;;;;;;;5022666;28;20132;-65
2022/05/02 14:32:04;;;;;;;4.47;1.80;;;;;;;;;;5005074;28;20045;-65
2022/05/02 14:34:40;;;;;;;5.22;2.03;;;;;;;;;;4988422;28;20124;-65
2022/05/02 14:37:07;;;;;;;4.93;1.85;;;;;;;;;;5021971;28;20094;-65
2022/05/02 14:39:36;;;;;;;5.32;1.70;;;;;;;;;;5019820;28;20045;-66
2022/05/02 14:42:03;;;;;;;4.70;1.92;;;;;;;;;;5007338;28;20046;-65
2022/05/02 14:44:30;;;;;;;4.15;1.98;;;;;;;;;;5008527;28;20125;-65
2022/05/02 14:47:00;;;;;;;13.82;1.50;;;;;;;;;;5023039;28;20044;-65
2022/05/02 14:49:26;;;;;;;3.55;1.50;;;;;;;;;;5022032;28;20061;-65
2022/05/02 14:51:53;;;;;;;2.83;1.30;;;;;;;;;;5022010;28;20478;-65
2022/05/02 14:54:21;;;;;;;4.47;1.38;;;;;;;;;;5009379;28;20046;-65
2022/05/02 14:56:48;;;;;;;3.63;1.20;;;;;;;;;;5005579;28;20234;-65
2022/05/02 14:59:16;;;;;;;3.97;1.00;;;;;;;;;;5024489;28;20418;-64
2022/05/02 15:01:43;;;;;;;3.67;1.60;;;;;;;;;;5023572;28;20124;-64
2022/05/02 15:04:11;;;;;;;4.45;1.58;;;;;;;;;;5016036;28;20042;-65
2022/05/02 15:06:38;;;;;;;4.80;1.23;;;;;;;;;;5025054;28;20045;-65
2022/05/02 15:09:23;;;;;;;2.63;1.13;;;;;;;;;;5002060;28;20048;-64
2022/05/02 15:11:57;;;;;;;4.30;1.38;;;;;;;;;;5007279;28;20073;-65
2022/05/02 15:14:29;;;;;;;2.35;1.30;;;;;;;;;;5015376;28;20108;-64
2022/05/02 15:17:01;;;;;;;2.97;1.23;;;;;;;;;;5022196;28;20100;-64
2022/05/02 15:19:37;;;;;;;3.55;1.00;;;;;;;;;;5009255;28;20080;-65
2022/05/02 15:22:41;;;;;;;3.25;1.30;;;;;;;;;;5019472;28;20614;-64
2022/05/02 15:25:10;;;;;;;3.42;0.90;;;;;;;;;;5004351;28;20054;-64
2022/05/02 15:38:55;;;;;;;3.75;1.40;;;;;;;;;;5003061;28;20049;-64